Nearby METAR Reports

 

KUCP - New Castle Muni, Pennsylvania, USA
Distance from station: ENE 8mi, 13km
Updated: Fri, 03-Apr-2020 12:56pm EDT
Clear
Clear
 Wind from NW
Wind: NW 16 mph , 26 km/h, Gust: 20 mph , 31 km/h
Temperature: 54°F , 12°C
Dew Point: 28°F , -2°C
Humidity: 38%
Barometer: 30.01 inHg , 1016.3 hPa
Clouds: Clear
Visibility: 10 miles , 16 km
2020/04/03 16:56 KUCP 031656Z AUTO 31014G17KT 10SM CLR 12/M02 A3001 RMK AO2 SLP181 T01221022 PNO $
KBVI - Beaver Falls Arp, Pennsylvania, USA
Distance from station: SSE 16mi, 26km
Updated: Fri, 03-Apr-2020 1:35pm EDT
Clear
Clear
 Wind from NW
Wind: NW 9 mph , 15 km/h, Gust: 21 mph , 33 km/h
Temperature: 57°F , 14°C
Dew Point: 27°F , -3°C
Humidity: 31%
Barometer: 29.99 inHg , 1015.6 hPa
Clouds: Clear
Visibility: 10 miles , 16 km
2020/04/03 17:35 KBVI 031735Z AUTO 32008G18KT 280V030 10SM CLR 14/M03 A2999 RMK AO2 T01401032
 
KYNG - Youngstown, Ohio, USA
Distance from station: NNW 20mi, 33km
Updated: Fri, 03-Apr-2020 1:51pm EDT
Clear
Clear
 Wind from NW
Wind: NW 16 mph , 26 km/h
Temperature: 54°F , 12°C
Dew Point: 28°F , -2°C
Humidity: 38%
Barometer: 30.00 inHg , 1015.9 hPa
Clouds: Clear
Visibility: 10 miles , 16 km
2020/04/03 17:51 KYNG 031751Z 32014KT 10SM CLR 12/M02 A3000 RMK AO2 SLP165 T01221017 10128 20022 58005 $
KBTP - Butler Co., Pennsylvania, USA
Distance from station: ESE 34mi, 55km
Updated: Fri, 03-Apr-2020 12:56pm EDT
Clear
Clear
 Wind from NNW
Wind: NNW 12 mph , 19 km/h, Gust: 18 mph , 30 km/h
Temperature: 54°F , 12°C
Dew Point: 28°F , -2°C
Humidity: 38%
Barometer: 29.98 inHg , 1015.2 hPa
Clouds: Clear
Visibility: 10 miles , 16 km
2020/04/03 16:56 KBTP 031656Z AUTO 33010G16KT 310V020 10SM CLR 12/M02 A2998 RMK AO2 SLP162 T01221017
 
KPIT - Pittsburgh, Pennsylvania, USA
Distance from station: SSE 36mi, 57km
Updated: Fri, 03-Apr-2020 1:51pm EDT
Few Clouds
Few Clouds
 Wind from WNW
Wind: WNW 14 mph , 22 km/h, Gust: 22 mph , 35 km/h
Temperature: 57°F , 14°C
Dew Point: 25°F , -4°C
Humidity: 29%
Barometer: 29.97 inHg , 1014.9 hPa
Clouds: Few Clouds
Visibility: 10 miles , 16 km
Cloud details: Few Clouds 25000 ft
2020/04/03 17:51 KPIT 031751Z 30012G19KT 10SM FEW250 14/M04 A2997 RMK AO2 SLP157 T01391039 10144 20017 58014
KPOV - Ravena/Portage, Ohio, USA
Distance from station: WNW 40mi, 65km
Updated: Fri, 03-Apr-2020 1:36pm EDT
Clear
Clear
 Wind from NW
Wind: NW 14 mph , 22 km/h, Gust: 20 mph , 31 km/h
Temperature: 55°F , 13°C
Dew Point: 23°F , -5°C
Humidity: 28%
Barometer: 30.03 inHg , 1016.9 hPa
Clouds: Clear
Visibility: 10 miles , 16 km
2020/04/03 17:36 KPOV 031736Z AUTO 31012G17KT 280V340 10SM CLR 13/M05 A3003 RMK AO2 T01261055 PWINO
 
KFKL - Franklin, Pennsylvania, USA
Distance from station: NE 45mi, 72km
Updated: Fri, 03-Apr-2020 12:56pm EDT
Clear
Clear
 Wind from NW
Wind: NW 13 mph , 20 km/h, Gust: 22 mph , 35 km/h
Temperature: 50°F , 10°C
Wind Chill: 45°F , 7°C
Dew Point: 30°F , -1°C
Humidity: 47%
Barometer: 29.98 inHg , 1015.2 hPa
Clouds: Clear
Visibility: 10 miles , 16 km
2020/04/03 16:56 KFKL 031656Z AUTO 31011G19KT 10SM CLR 10/M01 A2998 RMK AO2 SLP159 T01001011
KCAK - Akron, Ohio, USA
Distance from station: W 47mi, 76km
Updated: Fri, 03-Apr-2020 1:51pm EDT
Few Clouds
Few Clouds
 Wind from NNW
Wind: NNW 15 mph , 24 km/h
Temperature: 57°F , 14°C
Dew Point: 25°F , -4°C
Humidity: 29%
Barometer: 30.03 inHg , 1016.9 hPa
Clouds: Few Clouds
Visibility: 10 miles , 16 km
Cloud details: Few Clouds 25000 ft
2020/04/03 17:51 KCAK 031751Z 34013KT 10SM FEW250 14/M04 A3003 RMK AO2 SLP171 T01441044 10144 20017 58008
 
KAKR - Akron (fulton), Ohio, USA
Distance from station: W 48mi, 77km
Updated: Fri, 03-Apr-2020 12:54pm EDT
Clear
Clear
 Wind from N
Wind: N 13 mph , 20 km/h
Temperature: 57°F , 14°C
Dew Point: 27°F , -3°C
Humidity: 31%
Barometer: 30.04 inHg , 1017.3 hPa
Clouds: Clear
Visibility: 10 miles , 16 km
2020/04/03 16:54 KAKR 031654Z AUTO 36011KT 10SM CLR 14/M03 A3004 RMK AO2 SLP174 T01391033
KGKJ - Meadville, Pennsylvania, USA
Distance from station: NNE 49mi, 79km
Updated: Fri, 03-Apr-2020 12:53pm EDT
Clear
Clear
 Wind from NNW
Wind: NNW 9 mph , 15 km/h, Gust: 21 mph , 33 km/h
Temperature: 48°F , 9°C
Wind Chill: 44°F , 7°C
Dew Point: 30°F , -1°C
Humidity: 50%
Barometer: 30.00 inHg , 1015.9 hPa
Clouds: Clear
Visibility: 10 miles , 16 km
2020/04/03 16:53 KGKJ 031653Z AUTO 34008G18KT 10SM CLR 09/M01 A3000 RMK AO2 SLP166 T00891011